createdAt,value
2022-10-17T00:01:06.139Z,77.31
2022-10-17T00:03:37.429Z,77.50
2022-10-17T00:06:09.716Z,77.51
2022-10-17T00:08:37.595Z,77.52
2022-10-17T00:11:10.152Z,77.96
2022-10-17T00:13:37.137Z,77.83
2022-10-17T00:16:04.443Z,77.91
2022-10-17T00:18:31.490Z,78.10
2022-10-17T00:20:58.528Z,78.36
2022-10-17T00:23:27.669Z,78.05
2022-10-17T00:26:05.905Z,78.50
2022-10-17T00:28:33.061Z,78.79
2022-10-17T00:31:02.723Z,78.58
2022-10-17T00:33:31.103Z,78.74
2022-10-17T00:36:14.087Z,78.50
2022-10-17T00:38:42.816Z,79.09
2022-10-17T00:41:12.230Z,79.08
2022-10-17T00:44:28.314Z,78.71
2022-10-17T00:47:05.054Z,79.13
2022-10-17T00:49:35.108Z,79.28
2022-10-17T00:52:09.940Z,79.22
2022-10-17T00:54:41.407Z,79.02
2022-10-17T00:57:08.674Z,79.05
2022-10-17T00:59:38.596Z,79.02
2022-10-17T01:02:15.843Z,79.41
2022-10-17T01:04:46.571Z,79.14
2022-10-17T01:07:13.660Z,79.04
2022-10-17T01:09:41.712Z,79.41
2022-10-17T01:12:32.796Z,79.22
2022-10-17T01:15:20.917Z,79.41
2022-10-17T01:18:12.213Z,79.69
2022-10-17T01:21:10.433Z,79.51
2022-10-17T01:23:56.154Z,79.78
2022-10-17T01:26:55.893Z,80.02
2022-10-17T01:29:32.070Z,80.13
2022-10-17T01:32:19.314Z,80.50
2022-10-17T01:35:01.065Z,80.28
2022-10-17T01:37:38.198Z,80.52
2022-10-17T01:40:16.006Z,80.86
2022-10-17T01:42:51.961Z,80.64
2022-10-17T01:45:33.698Z,80.97
2022-10-17T01:48:10.149Z,80.91
2022-10-17T01:50:44.483Z,81.13
2022-10-17T01:53:20.537Z,80.90
2022-10-17T01:55:50.155Z,81.16
2022-10-17T01:58:28.455Z,81.53
2022-10-17T02:00:59.565Z,81.85
2022-10-17T02:03:29.915Z,81.52
2022-10-17T02:05:56.975Z,81.97
2022-10-17T02:08:29.034Z,81.81
2022-10-17T02:11:06.286Z,81.97
2022-10-17T02:14:05.380Z,82.02
2022-10-17T02:17:03.337Z,82.10
2022-10-17T02:20:02.898Z,82.41
2022-10-17T02:22:42.441Z,82.45
2022-10-17T02:25:18.862Z,82.63
2022-10-17T02:27:51.186Z,82.80
2022-10-17T02:30:40.861Z,82.99
2022-10-17T02:33:49.148Z,82.78
2022-10-17T02:36:22.225Z,83.22
2022-10-17T02:38:51.982Z,83.20
2022-10-17T02:41:20.452Z,83.09
2022-10-17T02:43:49.890Z,83.13
2022-10-17T02:46:21.256Z,83.19
2022-10-17T02:48:53.426Z,83.25
2022-10-17T02:51:45.098Z,83.46
2022-10-17T02:54:37.405Z,83.47
2022-10-17T02:57:27.241Z,83.47
2022-10-17T02:59:58.344Z,83.41
2022-10-17T03:02:25.496Z,83.50
2022-10-17T03:04:52.816Z,83.76
2022-10-17T03:07:19.879Z,83.63
2022-10-17T03:09:46.945Z,83.60
2022-10-17T03:12:14.015Z,83.92
2022-10-17T03:14:41.079Z,84.01
2022-10-17T03:17:08.359Z,84.27
2022-10-17T03:19:35.950Z,84.49
2022-10-17T03:22:03.092Z,84.31
2022-10-17T03:24:31.180Z,84.66
2022-10-17T03:26:58.625Z,84.65
2022-10-17T03:29:25.614Z,84.71
2022-10-17T03:31:53.493Z,84.99
2022-10-17T03:34:20.638Z,85.13
2022-10-17T03:36:48.709Z,85.06
2022-10-17T03:39:15.904Z,85.25
2022-10-17T03:41:43.299Z,85.32
2022-10-17T03:44:10.312Z,85.25
2022-10-17T03:46:37.417Z,85.31
2022-10-17T03:49:04.569Z,85.00
2022-10-17T03:51:34.515Z,84.77
2022-10-17T03:54:06.116Z,85.20
2022-10-17T03:56:33.573Z,85.00
2022-10-17T03:59:07.080Z,85.20
2022-10-17T04:01:36.872Z,84.93
2022-10-17T04:04:04.225Z,84.80
2022-10-17T04:06:34.426Z,84.84
2022-10-17T04:09:01.756Z,85.24
2022-10-17T04:11:40.415Z,85.16
2022-10-17T04:14:08.354Z,85.49
2022-10-17T04:16:39.076Z,85.33
2022-10-17T04:19:13.994Z,85.07
2022-10-17T04:21:45.016Z,85.17
2022-10-17T04:24:13.481Z,85.45
2022-10-17T04:27:00.669Z,84.96
2022-10-17T04:29:30.465Z,85.14
2022-10-17T04:32:05.922Z,85.18
2022-10-17T04:34:43.301Z,85.62
2022-10-17T04:37:10.809Z,85.02
2022-10-17T04:39:38.171Z,85.40
2022-10-17T04:42:05.465Z,85.22
2022-10-17T04:44:33.844Z,85.04
2022-10-17T04:47:01.625Z,85.12
2022-10-17T04:49:28.825Z,84.91
2022-10-17T04:52:00.957Z,85.28
2022-10-17T04:54:44.811Z,85.58
2022-10-17T04:57:13.730Z,85.42
2022-10-17T04:59:43.035Z,85.13
2022-10-17T05:02:28.246Z,85.25
2022-10-17T05:04:55.982Z,85.12
2022-10-17T05:07:22.908Z,85.35
2022-10-17T05:10:11.331Z,85.42
2022-10-17T05:12:40.733Z,85.20
2022-10-17T05:15:09.098Z,85.21
2022-10-17T05:17:36.090Z,85.31
2022-10-17T05:20:03.046Z,85.19
2022-10-17T05:22:32.024Z,85.49
2022-10-17T05:25:00.970Z,85.50
2022-10-17T05:27:28.749Z,85.77
2022-10-17T05:29:55.796Z,85.22
2022-10-17T05:32:30.829Z,83.42
2022-10-17T05:34:58.610Z,82.87
2022-10-17T05:37:26.263Z,81.48
2022-10-17T05:39:56.082Z,80.61
2022-10-17T05:42:24.564Z,78.00
2022-10-17T05:44:51.758Z,76.92
2022-10-17T05:47:19.766Z,75.65
2022-10-17T05:49:51.509Z,72.41
2022-10-17T05:52:25.428Z,70.56
2022-10-17T05:55:00.564Z,66.96
2022-10-17T05:57:27.896Z,65.11
2022-10-17T05:59:56.245Z,63.75
2022-10-17T06:02:23.567Z,62.23
2022-10-17T06:04:50.863Z,59.98
2022-10-17T06:07:20.814Z,59.97
2022-10-17T06:09:48.817Z,57.98
2022-10-17T06:12:15.815Z,57.86
2022-10-17T06:14:43.782Z,57.11
2022-10-17T06:17:16.992Z,55.54
2022-10-17T06:19:45.232Z,56.17
2022-10-17T06:22:15.110Z,58.08
2022-10-17T06:24:42.770Z,60.01
2022-10-17T06:27:12.095Z,60.20
2022-10-17T06:29:41.013Z,59.07
2022-10-17T06:32:11.091Z,57.66
2022-10-17T06:34:42.410Z,55.54
2022-10-17T06:37:10.823Z,52.82
2022-10-17T06:39:39.918Z,50.99
2022-10-17T06:42:16.706Z,52.11
2022-10-17T06:45:04.142Z,50.41
2022-10-17T06:47:37.406Z,50.54
2022-10-17T06:50:17.486Z,51.31
2022-10-17T06:52:51.981Z,52.38
2022-10-17T06:55:54.055Z,51.85
2022-10-17T06:58:41.759Z,52.00
2022-10-17T07:01:22.728Z,52.34
2022-10-17T07:03:54.277Z,53.04
2022-10-17T07:06:24.312Z,52.74
2022-10-17T07:08:52.566Z,53.66
2022-10-17T07:11:21.591Z,54.91
2022-10-17T07:13:51.145Z,54.97
2022-10-17T07:16:18.223Z,55.22
2022-10-17T07:18:51.241Z,55.59
2022-10-17T07:21:18.923Z,56.58
2022-10-17T07:23:46.391Z,58.18
2022-10-17T07:26:16.550Z,59.92
2022-10-17T07:28:45.112Z,61.87
2022-10-17T07:31:33.536Z,62.76
2022-10-17T07:34:00.965Z,63.10
2022-10-17T07:36:28.596Z,63.76
2022-10-17T07:38:56.915Z,64.22
2022-10-17T07:41:25.234Z,63.98
2022-10-17T07:43:52.306Z,64.90
2022-10-17T07:46:22.912Z,65.70
2022-10-17T07:48:50.172Z,65.37
2022-10-17T07:51:20.328Z,64.72
2022-10-17T07:53:48.847Z,65.51
2022-10-17T07:56:16.553Z,65.44
2022-10-17T07:58:43.499Z,65.98
2022-10-17T08:01:16.230Z,65.90
2022-10-17T08:03:48.921Z,66.40
2022-10-17T08:06:16.107Z,66.64
2022-10-17T08:08:44.460Z,66.64
2022-10-17T08:11:13.674Z,66.35
2022-10-17T08:13:41.751Z,67.14
2022-10-17T08:16:11.815Z,66.33
2022-10-17T08:18:44.158Z,65.59
2022-10-17T08:21:13.408Z,66.67
2022-10-17T08:23:42.338Z,65.27
2022-10-17T08:26:13.497Z,64.73
2022-10-17T08:28:40.971Z,63.62
2022-10-17T08:31:13.902Z,63.27
2022-10-17T08:33:41.423Z,63.69
2022-10-17T08:36:09.409Z,64.37
2022-10-17T08:38:43.013Z,65.12
2022-10-17T08:41:45.772Z,63.75
2022-10-17T08:44:26.580Z,62.48
2022-10-17T08:46:59.109Z,62.23
2022-10-17T08:49:51.436Z,62.34
2022-10-17T08:52:32.746Z,62.10
2022-10-17T08:55:00.027Z,61.15
2022-10-17T08:57:29.068Z,61.34
2022-10-17T08:59:57.053Z,60.91
2022-10-17T09:02:45.009Z,60.08
2022-10-17T09:05:23.973Z,59.89
2022-10-17T09:08:22.766Z,58.54
2022-10-17T09:11:14.393Z,58.55
2022-10-17T09:13:51.079Z,60.42
2022-10-17T09:16:40.201Z,59.79
2022-10-17T09:19:21.743Z,61.57
2022-10-17T09:21:54.354Z,62.61
2022-10-17T09:24:39.865Z,63.87
2022-10-17T09:27:23.537Z,63.20
2022-10-17T09:30:02.298Z,62.26
2022-10-17T09:32:29.556Z,62.57
2022-10-17T09:34:56.833Z,62.98
2022-10-17T09:37:32.973Z,62.53
2022-10-17T09:40:00.042Z,61.81
2022-10-17T09:42:28.481Z,61.57
2022-10-17T09:45:16.544Z,61.29
2022-10-17T09:48:06.795Z,61.05
2022-10-17T09:50:34.457Z,59.71
2022-10-17T09:53:10.210Z,61.06
2022-10-17T09:55:48.452Z,56.85
2022-10-17T09:58:15.758Z,59.35
2022-10-17T10:00:47.716Z,60.03
2022-10-17T10:03:26.521Z,60.78
2022-10-17T10:06:13.987Z,60.82
2022-10-17T10:08:51.457Z,61.37
2022-10-17T10:11:22.689Z,61.94
2022-10-17T10:13:50.845Z,61.30
2022-10-17T10:16:42.547Z,60.95
2022-10-17T10:19:32.345Z,61.07
2022-10-17T10:22:04.700Z,60.57
2022-10-17T10:24:32.374Z,61.12
2022-10-17T10:27:03.020Z,58.89
2022-10-17T10:29:40.117Z,61.15
2022-10-17T10:32:19.243Z,59.69
2022-10-17T10:34:50.998Z,58.61
2022-10-17T10:37:27.403Z,59.05
2022-10-17T10:40:04.374Z,60.19
2022-10-17T10:42:37.828Z,60.17
2022-10-17T10:45:47.510Z,59.76
2022-10-17T10:48:24.636Z,58.68
2022-10-17T10:50:57.630Z,56.69
2022-10-17T10:53:34.113Z,57.69
2022-10-17T10:56:13.974Z,58.60
2022-10-17T10:59:02.781Z,58.51
2022-10-17T11:01:51.654Z,60.88
2022-10-17T11:04:41.000Z,60.39
2022-10-17T11:07:15.459Z,62.24
2022-10-17T11:09:49.475Z,62.72
2022-10-17T11:12:31.734Z,63.12
2022-10-17T11:14:58.803Z,63.14
2022-10-17T11:17:30.661Z,63.68
2022-10-17T11:20:12.601Z,64.45
2022-10-17T11:22:44.560Z,66.14
2022-10-17T11:25:36.782Z,64.80
2022-10-17T11:28:12.300Z,66.08
2022-10-17T11:31:04.484Z,65.10
2022-10-17T11:33:52.261Z,64.79
2022-10-17T11:36:26.255Z,64.81
2022-10-17T11:39:05.574Z,62.37
2022-10-17T11:41:36.586Z,63.47
2022-10-17T11:44:18.797Z,63.26
2022-10-17T11:46:49.993Z,61.07
2022-10-17T11:49:24.016Z,62.47
2022-10-17T11:52:02.421Z,59.66
2022-10-17T11:54:41.907Z,62.48
2022-10-17T11:57:30.494Z,63.86
2022-10-17T12:00:01.057Z,63.71
2022-10-17T12:03:00.565Z,64.74
2022-10-17T12:05:42.988Z,63.47
2022-10-17T12:08:34.814Z,63.82
2022-10-17T12:11:11.341Z,62.22
2022-10-17T12:13:38.474Z,62.41
2022-10-17T12:16:20.783Z,62.30
2022-10-17T12:19:11.570Z,63.23
2022-10-17T12:21:56.142Z,63.01
2022-10-17T12:24:40.861Z,63.56
2022-10-17T12:27:29.208Z,64.71
2022-10-17T12:30:14.802Z,63.49
2022-10-17T12:33:11.531Z,62.84
2022-10-17T12:35:39.623Z,63.42
2022-10-17T12:38:18.849Z,62.80
2022-10-17T12:40:49.039Z,62.43
2022-10-17T12:43:16.221Z,62.42
2022-10-17T12:45:53.592Z,62.90
2022-10-17T12:48:39.013Z,62.72
2022-10-17T12:51:35.417Z,64.02
2022-10-17T12:54:16.511Z,62.25
2022-10-17T12:56:49.447Z,60.73
2022-10-17T12:59:16.244Z,60.62
2022-10-17T13:01:48.444Z,60.30
2022-10-17T13:04:15.963Z,61.15
2022-10-17T13:06:55.858Z,61.13
2022-10-17T13:09:32.696Z,59.17
2022-10-17T13:12:03.133Z,60.56
2022-10-17T13:14:33.114Z,58.16
2022-10-17T13:17:07.538Z,58.92
2022-10-17T13:19:43.358Z,60.22
2022-10-17T13:22:15.514Z,61.08
2022-10-17T13:24:42.612Z,60.60
2022-10-17T13:27:33.973Z,61.15
2022-10-17T13:30:21.239Z,62.76
2022-10-17T13:32:48.377Z,61.61
2022-10-17T13:35:31.738Z,62.29
2022-10-17T13:38:09.403Z,61.69
2022-10-17T13:40:49.941Z,60.33
2022-10-17T13:43:21.091Z,61.26
2022-10-17T13:46:02.298Z,60.97
2022-10-17T13:48:38.466Z,60.00
2022-10-17T13:51:10.299Z,60.08
2022-10-17T13:53:44.039Z,58.65
2022-10-17T13:56:34.716Z,59.11
2022-10-17T13:59:19.041Z,57.56
2022-10-17T14:01:49.883Z,59.64
2022-10-17T14:04:20.095Z,59.73
2022-10-17T14:06:49.798Z,58.11
2022-10-17T14:09:27.015Z,59.85
2022-10-17T14:12:06.848Z,60.29
2022-10-17T14:14:51.689Z,60.98
2022-10-17T14:17:28.374Z,61.31
2022-10-17T14:20:16.479Z,62.51
2022-10-17T14:22:50.636Z,62.74
2022-10-17T14:25:29.725Z,62.96
2022-10-17T14:28:07.979Z,63.38
2022-10-17T14:30:57.463Z,62.16
2022-10-17T14:33:27.805Z,61.14
2022-10-17T14:35:57.756Z,62.59
2022-10-17T14:38:25.957Z,63.38
2022-10-17T14:41:15.298Z,62.94
2022-10-17T14:43:45.713Z,62.49
2022-10-17T14:46:16.136Z,62.37
2022-10-17T14:48:43.949Z,63.00
2022-10-17T14:51:12.609Z,64.80
2022-10-17T14:53:40.246Z,63.69
2022-10-17T14:56:28.323Z,64.45
2022-10-17T14:58:55.285Z,65.61
2022-10-17T15:01:22.325Z,65.78
2022-10-17T15:03:49.252Z,61.91
2022-10-17T15:06:29.966Z,63.29
2022-10-17T15:08:57.889Z,65.04
2022-10-17T15:11:25.000Z,65.04
2022-10-17T15:13:52.322Z,63.23
2022-10-17T15:16:24.781Z,64.59
2022-10-17T15:18:52.841Z,65.59
2022-10-17T15:21:39.218Z,65.91
2022-10-17T15:24:07.734Z,65.83
2022-10-17T15:26:35.241Z,66.38
2022-10-17T15:29:02.305Z,63.57
2022-10-17T15:31:31.655Z,63.20
2022-10-17T15:33:58.713Z,63.61
2022-10-17T15:36:28.188Z,64.04
2022-10-17T15:38:58.253Z,64.42
2022-10-17T15:41:27.404Z,64.25
2022-10-17T15:43:54.717Z,64.73
2022-10-17T15:46:25.445Z,64.58
2022-10-17T15:48:54.366Z,64.55
2022-10-17T15:51:23.474Z,63.92
2022-10-17T15:53:50.469Z,66.51
2022-10-17T15:56:35.899Z,66.37
2022-10-17T15:59:06.748Z,66.35
2022-10-17T16:01:34.545Z,67.59
2022-10-17T16:04:02.094Z,68.43
2022-10-17T16:06:29.516Z,69.39
2022-10-17T16:08:56.549Z,69.53
2022-10-17T16:11:31.982Z,69.39
2022-10-17T16:14:02.503Z,68.93
2022-10-17T16:16:30.204Z,68.71
2022-10-17T16:18:57.253Z,68.63
2022-10-17T16:23:57.845Z,68.73
2022-10-17T16:26:25.427Z,69.26
2022-10-17T16:28:52.477Z,69.63
2022-10-17T16:31:22.961Z,69.35
2022-10-17T16:33:55.066Z,69.43
2022-10-17T16:36:22.587Z,69.69
2022-10-17T16:38:51.591Z,70.13
2022-10-17T16:41:38.964Z,70.77
2022-10-17T16:44:08.388Z,70.73
2022-10-17T16:46:37.808Z,70.57
2022-10-17T16:49:05.740Z,70.55
2022-10-17T16:51:35.928Z,70.38
2022-10-17T16:54:05.612Z,70.00
2022-10-17T16:56:33.082Z,70.22
2022-10-17T16:59:01.118Z,69.92
2022-10-17T17:01:31.488Z,70.01
2022-10-17T17:03:58.586Z,70.07
2022-10-17T17:06:28.549Z,70.19
2022-10-17T17:08:56.668Z,70.75
2022-10-17T17:11:26.557Z,70.30
2022-10-17T17:13:56.623Z,70.43
2022-10-17T17:16:25.421Z,70.33
2022-10-17T17:19:01.687Z,70.49
2022-10-17T17:21:29.068Z,70.63
2022-10-17T17:23:58.729Z,70.77
2022-10-17T17:26:27.625Z,70.74
2022-10-17T17:28:57.003Z,71.13
2022-10-17T17:31:26.838Z,71.11
2022-10-17T17:36:31.951Z,70.66
2022-10-17T17:39:00.920Z,70.52
2022-10-17T17:41:28.748Z,70.57
2022-10-17T17:43:56.197Z,70.52
2022-10-17T17:46:26.088Z,70.37
2022-10-17T17:48:54.396Z,70.37
2022-10-17T17:51:28.300Z,70.71
2022-10-17T17:53:56.951Z,71.21
2022-10-17T17:56:26.942Z,71.18
2022-10-17T17:58:59.510Z,71.64
2022-10-17T18:01:29.571Z,71.90
2022-10-17T18:03:59.077Z,71.76
2022-10-17T18:06:27.246Z,71.92
2022-10-17T18:08:57.861Z,71.37
2022-10-17T18:11:26.394Z,71.38
2022-10-17T18:13:55.540Z,71.65
2022-10-17T18:16:22.713Z,71.60
2022-10-17T18:18:49.762Z,71.37
2022-10-17T18:21:17.404Z,71.19
2022-10-17T18:23:46.143Z,71.10
2022-10-17T18:26:14.735Z,71.25
2022-10-17T18:28:43.351Z,70.88
2022-10-17T18:31:15.873Z,71.06
2022-10-17T18:33:44.761Z,71.15
2022-10-17T18:36:14.364Z,70.69
2022-10-17T18:38:42.303Z,70.94
2022-10-17T18:41:12.065Z,70.61
2022-10-17T18:43:41.280Z,70.71
2022-10-17T18:46:14.002Z,70.46
2022-10-17T18:48:44.661Z,70.62
2022-10-17T18:51:13.366Z,70.21
2022-10-17T18:53:45.366Z,70.28
2022-10-17T18:56:13.621Z,70.14
2022-10-17T18:58:41.034Z,69.91
2022-10-17T19:01:15.527Z,69.63
2022-10-17T19:03:47.362Z,69.09
2022-10-17T19:06:18.196Z,68.88
2022-10-17T19:08:46.119Z,68.91
2022-10-17T19:11:24.782Z,68.89
2022-10-17T19:13:52.724Z,68.68
2022-10-17T19:16:29.739Z,68.53
2022-10-17T19:19:01.451Z,68.78
2022-10-17T19:21:28.466Z,68.73
2022-10-17T19:24:01.031Z,68.76
2022-10-17T19:26:30.374Z,68.88
2022-10-17T19:28:57.586Z,69.15
2022-10-17T19:31:27.393Z,68.82
2022-10-17T19:33:55.713Z,68.83
2022-10-17T19:36:30.512Z,68.88
2022-10-17T19:39:06.548Z,69.39
2022-10-17T19:41:34.090Z,69.34
2022-10-17T19:44:01.312Z,69.67
2022-10-17T19:46:30.107Z,69.69
2022-10-17T19:48:57.915Z,69.88
2022-10-17T19:51:26.456Z,70.00
2022-10-17T19:53:55.394Z,69.93
2022-10-17T19:56:23.807Z,69.73
2022-10-17T19:58:51.677Z,69.92
2022-10-17T20:01:21.925Z,69.58
2022-10-17T20:03:49.862Z,69.65
2022-10-17T20:06:17.877Z,69.40
2022-10-17T20:08:45.197Z,69.43
2022-10-17T20:11:15.606Z,69.66
2022-10-17T20:13:43.324Z,69.18
2022-10-17T20:16:15.050Z,68.70
2022-10-17T20:18:42.461Z,68.50
2022-10-17T20:21:12.462Z,68.49
2022-10-17T20:23:40.962Z,68.70
2022-10-17T20:26:26.069Z,68.56
2022-10-17T20:29:05.111Z,68.44
2022-10-17T20:31:32.170Z,68.03
2022-10-17T20:33:59.781Z,68.59
2022-10-17T20:36:27.417Z,68.76
2022-10-17T20:38:56.542Z,68.69
2022-10-17T20:41:24.899Z,68.67
2022-10-17T20:43:53.441Z,68.59
2022-10-17T20:46:35.871Z,68.90
2022-10-17T20:49:06.214Z,68.96
2022-10-17T20:51:33.481Z,68.81
2022-10-17T20:54:00.679Z,68.79
2022-10-17T20:56:29.559Z,68.76
2022-10-17T20:58:59.230Z,68.67
2022-10-17T21:01:27.192Z,68.89
2022-10-17T21:03:54.145Z,69.18
2022-10-17T21:06:22.148Z,69.02
2022-10-17T21:08:49.833Z,68.78
2022-10-17T21:11:19.336Z,69.16
2022-10-17T21:13:48.246Z,69.62
2022-10-17T21:16:17.704Z,69.44
2022-10-17T21:18:45.102Z,69.48
2022-10-17T21:21:19.260Z,69.80
2022-10-17T21:23:48.294Z,70.19
2022-10-17T21:26:16.251Z,69.84
2022-10-17T21:28:44.832Z,69.96
2022-10-17T21:31:13.569Z,70.08
2022-10-17T21:33:42.100Z,70.45
2022-10-17T21:36:10.170Z,70.64
2022-10-17T21:38:38.310Z,70.62
2022-10-17T21:41:07.274Z,70.59
2022-10-17T21:43:35.273Z,70.46
2022-10-17T21:46:07.258Z,70.82
2022-10-17T21:48:34.770Z,70.85
2022-10-17T21:51:04.227Z,70.52
2022-10-17T21:53:31.514Z,70.95
2022-10-17T21:56:07.234Z,71.17
2022-10-17T21:58:34.237Z,71.20
2022-10-17T22:01:10.651Z,71.19
2022-10-17T22:03:44.234Z,70.98
2022-10-17T22:09:06.082Z,71.53
2022-10-17T22:11:35.249Z,71.25
2022-10-17T22:14:05.678Z,71.62
2022-10-17T22:16:33.642Z,71.33
2022-10-17T22:19:06.131Z,71.09
2022-10-17T22:21:35.840Z,70.83
2022-10-17T22:24:07.753Z,71.13
2022-10-17T22:26:36.990Z,71.03
2022-10-17T22:29:05.851Z,70.59
2022-10-17T22:31:33.689Z,70.45
2022-10-17T22:34:00.740Z,70.33
2022-10-17T22:36:28.787Z,70.13
2022-10-17T22:38:55.751Z,69.91
2022-10-17T22:41:23.022Z,69.82
2022-10-17T22:43:49.936Z,70.25
2022-10-17T22:46:17.395Z,69.55
2022-10-17T22:48:44.494Z,69.50
2022-10-17T22:51:12.292Z,70.12
2022-10-17T22:53:39.530Z,69.69
2022-10-17T22:56:11.042Z,69.66
2022-10-17T22:58:38.628Z,69.70
2022-10-17T23:01:07.287Z,68.78
2022-10-17T23:03:35.572Z,68.61
2022-10-17T23:06:03.170Z,68.16
2022-10-17T23:08:30.917Z,67.96
2022-10-17T23:10:58.002Z,68.25
2022-10-17T23:13:25.262Z,68.44
2022-10-17T23:15:53.983Z,68.11
2022-10-17T23:18:22.601Z,68.25
2022-10-17T23:20:49.974Z,68.32
2022-10-17T23:23:17.346Z,68.16
2022-10-17T23:25:44.849Z,68.22
2022-10-17T23:28:12.137Z,68.30
2022-10-17T23:30:39.856Z,68.72
2022-10-17T23:33:07.184Z,68.77
2022-10-17T23:35:35.601Z,68.93
2022-10-17T23:38:03.204Z,68.69
2022-10-17T23:40:30.213Z,68.97
2022-10-17T23:42:57.337Z,68.58
2022-10-17T23:45:24.346Z,69.13
2022-10-17T23:47:51.427Z,69.12
2022-10-17T23:50:18.627Z,69.15
2022-10-17T23:52:45.679Z,69.03
2022-10-17T23:55:12.678Z,69.42
2022-10-17T23:57:39.746Z,68.93
